createdAt,value
2022-12-18T00:01:39.387Z,35.25
2022-12-18T00:04:10.662Z,36.58
2022-12-18T00:06:42.968Z,32.67
2022-12-18T00:09:14.509Z,30.23
2022-12-18T00:11:44.532Z,28.92
2022-12-18T00:14:16.392Z,28.05
2022-12-18T00:16:48.954Z,27.42
2022-12-18T00:19:18.912Z,27.75
2022-12-18T00:21:49.369Z,30.38
2022-12-18T00:24:19.260Z,32.38
2022-12-18T00:26:49.380Z,30.25
2022-12-18T00:29:19.266Z,27.42
2022-12-18T00:31:49.259Z,27.77
2022-12-18T00:34:19.195Z,28.20
2022-12-18T00:36:51.674Z,28.70
2022-12-18T00:39:21.468Z,25.13
2022-12-18T00:42:10.975Z,23.55
2022-12-18T00:44:40.869Z,23.02
2022-12-18T00:47:10.725Z,22.85
2022-12-18T00:49:40.634Z,22.65
2022-12-18T00:52:10.989Z,22.02
2022-12-18T00:54:41.086Z,19.40
2022-12-18T00:57:10.980Z,21.38
2022-12-18T00:59:40.804Z,21.52
2022-12-18T01:02:10.869Z,20.48
2022-12-18T01:04:40.900Z,20.60
2022-12-18T01:07:10.729Z,20.50
2022-12-18T01:09:40.666Z,20.25
2022-12-18T01:12:10.625Z,19.05
2022-12-18T01:14:40.925Z,20.10
2022-12-18T01:17:10.925Z,19.60
2022-12-18T01:19:40.885Z,19.08
2022-12-18T01:22:10.454Z,19.80
2022-12-18T01:24:39.949Z,19.63
2022-12-18T01:27:09.886Z,18.77
2022-12-18T01:29:39.424Z,18.88
2022-12-18T01:32:09.015Z,18.23
2022-12-18T01:34:41.720Z,19.50
2022-12-18T01:37:11.266Z,19.33
2022-12-18T01:39:40.813Z,18.08
2022-12-18T01:42:17.413Z,18.55
2022-12-18T01:45:26.228Z,19.65
2022-12-18T01:48:18.183Z,18.50
2022-12-18T01:50:47.805Z,18.92
2022-12-18T01:53:21.973Z,19.98
2022-12-18T01:55:58.365Z,18.65
2022-12-18T01:59:00.626Z,19.45
2022-12-18T02:01:32.073Z,19.25
2022-12-18T02:04:28.845Z,19.98
2022-12-18T02:07:15.501Z,18.95
2022-12-18T02:10:02.993Z,18.48
2022-12-18T02:12:58.154Z,18.80
2022-12-18T02:15:42.100Z,18.88
2022-12-18T02:18:23.030Z,18.45
2022-12-18T02:20:58.590Z,18.05
2022-12-18T02:23:59.164Z,18.55
2022-12-18T02:26:35.759Z,17.23
2022-12-18T02:29:15.133Z,18.95
2022-12-18T02:31:56.164Z,17.70
2022-12-18T02:34:31.204Z,17.92
2022-12-18T02:37:04.065Z,17.08
2022-12-18T02:39:36.808Z,17.35
2022-12-18T02:42:10.479Z,17.55
2022-12-18T02:44:48.172Z,16.77
2022-12-18T02:47:22.342Z,17.80
2022-12-18T02:50:19.414Z,17.00
2022-12-18T02:53:15.266Z,16.77
2022-12-18T02:56:07.314Z,17.00
2022-12-18T02:59:06.128Z,16.58
2022-12-18T03:01:58.736Z,16.33
2022-12-18T03:05:02.440Z,16.30
2022-12-18T03:07:40.969Z,15.80
2022-12-18T03:10:14.864Z,16.60
2022-12-18T03:12:55.856Z,15.07
2022-12-18T03:15:33.089Z,15.93
2022-12-18T03:18:16.113Z,15.98
2022-12-18T03:20:48.966Z,16.90
2022-12-18T03:23:26.262Z,15.82
2022-12-18T03:26:04.398Z,15.55
2022-12-18T03:28:42.705Z,16.90
2022-12-18T03:31:15.553Z,15.25
2022-12-18T03:33:57.038Z,16.35
2022-12-18T03:36:26.964Z,14.82
2022-12-18T03:38:56.523Z,16.13
2022-12-18T03:41:48.170Z,16.02
2022-12-18T03:44:39.972Z,15.32
2022-12-18T03:47:18.665Z,15.52
2022-12-18T03:50:13.921Z,15.45
2022-12-18T03:53:14.134Z,15.43
2022-12-18T03:55:45.224Z,15.60
2022-12-18T03:58:19.973Z,16.77
2022-12-18T04:00:53.672Z,15.82
2022-12-18T04:03:26.472Z,15.75
2022-12-18T04:05:58.674Z,13.85
2022-12-18T04:08:28.665Z,15.07
2022-12-18T04:10:58.484Z,16.40
2022-12-18T04:13:32.456Z,15.85
2022-12-18T04:16:02.006Z,14.85
2022-12-18T04:18:31.614Z,14.68
2022-12-18T04:21:01.173Z,14.55
2022-12-18T04:23:31.221Z,13.68
2022-12-18T04:26:00.896Z,14.65
2022-12-18T04:28:30.602Z,14.32
2022-12-18T04:31:00.246Z,14.48
2022-12-18T04:33:30.174Z,15.07
2022-12-18T04:35:59.925Z,14.90
2022-12-18T04:38:29.469Z,14.13
2022-12-18T04:40:59.045Z,14.43
2022-12-18T04:43:28.745Z,13.18
2022-12-18T04:46:08.558Z,14.45
2022-12-18T04:48:39.304Z,13.00
2022-12-18T04:51:09.960Z,14.73
2022-12-18T04:53:39.762Z,12.98
2022-12-18T04:56:15.528Z,13.10
2022-12-18T04:58:47.417Z,12.82
2022-12-18T05:01:19.339Z,12.88
2022-12-18T05:03:49.139Z,13.65
2022-12-18T05:06:18.727Z,13.95
2022-12-18T05:08:48.417Z,13.68
2022-12-18T05:11:18.708Z,15.15
2022-12-18T05:13:48.762Z,13.88
2022-12-18T05:16:18.674Z,13.73
2022-12-18T05:18:48.293Z,14.55
2022-12-18T05:21:17.828Z,13.15
2022-12-18T05:23:47.435Z,12.70
2022-12-18T05:26:20.494Z,13.63
2022-12-18T05:28:50.303Z,13.07
2022-12-18T05:31:20.382Z,12.48
2022-12-18T05:33:50.023Z,12.30
2022-12-18T05:36:19.748Z,13.15
2022-12-18T05:38:49.301Z,12.07
2022-12-18T05:41:19.176Z,11.63
2022-12-18T05:43:48.840Z,12.25
2022-12-18T05:46:20.598Z,11.98
2022-12-18T05:48:50.848Z,11.13
2022-12-18T05:51:22.670Z,11.75
2022-12-18T05:53:52.607Z,11.30
2022-12-18T05:56:25.405Z,11.75
2022-12-18T05:58:57.387Z,11.85
2022-12-18T06:01:29.297Z,12.18
2022-12-18T06:03:59.319Z,11.98
2022-12-18T06:06:31.472Z,11.93
2022-12-18T06:09:01.217Z,10.73
2022-12-18T06:11:31.176Z,10.05
2022-12-18T06:14:00.870Z,11.00
2022-12-18T06:16:31.873Z,9.63
2022-12-18T06:19:06.389Z,10.30
2022-12-18T06:21:36.659Z,9.93
2022-12-18T06:24:06.347Z,11.48
2022-12-18T06:26:35.881Z,9.88
2022-12-18T06:29:05.528Z,10.25
2022-12-18T06:31:35.226Z,10.57
2022-12-18T06:34:07.974Z,9.98
2022-12-18T06:36:37.658Z,8.98
2022-12-18T06:39:08.202Z,9.40
2022-12-18T06:41:38.974Z,10.95
2022-12-18T06:44:09.340Z,9.40
2022-12-18T06:46:40.667Z,9.32
2022-12-18T06:49:12.171Z,10.65
2022-12-18T06:51:42.167Z,10.70
2022-12-18T06:54:11.847Z,10.52
2022-12-18T06:56:41.403Z,10.35
2022-12-18T06:59:12.291Z,9.35
2022-12-18T07:01:42.249Z,10.40
2022-12-18T07:04:12.210Z,9.80
2022-12-18T07:06:42.129Z,9.32
2022-12-18T07:09:12.022Z,10.32
2022-12-18T07:11:41.782Z,8.88
2022-12-18T07:14:11.656Z,10.30
2022-12-18T07:16:41.613Z,9.98
2022-12-18T07:19:11.566Z,10.35
2022-12-18T07:21:41.505Z,10.57
2022-12-18T07:24:11.631Z,10.73
2022-12-18T07:26:41.828Z,9.80
2022-12-18T07:29:12.032Z,9.38
2022-12-18T07:31:41.977Z,9.73
2022-12-18T07:34:17.673Z,9.23
2022-12-18T07:36:47.572Z,10.00
2022-12-18T07:39:17.577Z,10.65
2022-12-18T07:42:07.146Z,9.38
2022-12-18T07:44:36.997Z,10.40
2022-12-18T07:47:11.796Z,8.95
2022-12-18T07:49:42.143Z,9.57
2022-12-18T07:52:12.189Z,10.05
2022-12-18T07:54:42.995Z,9.52
2022-12-18T07:57:27.413Z,9.10
2022-12-18T08:00:03.590Z,9.38
2022-12-18T08:02:35.156Z,9.02
2022-12-18T08:05:05.275Z,9.63
2022-12-18T08:07:36.690Z,9.45
2022-12-18T08:10:06.725Z,9.05
2022-12-18T08:12:36.387Z,10.05
2022-12-18T08:15:06.043Z,9.13
2022-12-18T08:17:35.934Z,10.32
2022-12-18T08:20:06.459Z,10.00
2022-12-18T08:22:41.627Z,9.18
2022-12-18T08:25:11.630Z,9.35
2022-12-18T08:27:41.201Z,8.35
2022-12-18T08:30:11.476Z,9.23
2022-12-18T08:32:41.095Z,9.48
2022-12-18T08:35:13.225Z,9.65
2022-12-18T08:37:42.836Z,10.45
2022-12-18T08:40:13.706Z,10.05
2022-12-18T08:43:03.475Z,8.57
2022-12-18T08:45:36.098Z,8.68
2022-12-18T08:48:05.747Z,9.07
2022-12-18T08:50:35.332Z,10.07
2022-12-18T08:53:05.277Z,9.40
2022-12-18T08:55:34.996Z,8.27
2022-12-18T08:58:04.585Z,9.52
2022-12-18T09:00:36.292Z,9.80
2022-12-18T09:03:06.250Z,8.80
2022-12-18T09:05:36.171Z,9.02
2022-12-18T09:08:06.098Z,9.55
2022-12-18T09:10:41.711Z,8.93
2022-12-18T09:13:14.417Z,9.57
2022-12-18T09:15:45.627Z,9.10
2022-12-18T09:18:16.735Z,9.20
2022-12-18T09:20:47.404Z,9.45
2022-12-18T09:23:17.718Z,9.30
2022-12-18T09:25:47.571Z,9.73
2022-12-18T09:28:20.457Z,9.45
2022-12-18T09:30:51.882Z,8.52
2022-12-18T09:33:21.913Z,9.93
2022-12-18T09:35:51.868Z,9.48
2022-12-18T09:38:23.086Z,8.13
2022-12-18T09:40:56.744Z,8.85
2022-12-18T09:44:04.490Z,9.50
2022-12-18T09:49:14.133Z,9.25
2022-12-18T09:51:53.025Z,8.18
2022-12-18T09:54:33.503Z,9.30
2022-12-18T09:57:03.460Z,9.55
2022-12-18T09:59:42.306Z,10.63
2022-12-18T10:02:23.906Z,9.77
2022-12-18T10:05:13.039Z,10.50
2022-12-18T10:08:05.673Z,9.73
2022-12-18T10:10:51.936Z,9.85
2022-12-18T10:13:44.296Z,9.40
2022-12-18T10:16:38.372Z,10.40
2022-12-18T10:19:51.781Z,10.23
2022-12-18T10:22:51.873Z,10.18
2022-12-18T10:25:31.932Z,9.52
2022-12-18T10:28:13.035Z,9.48
2022-12-18T10:30:44.705Z,10.63
2022-12-18T10:33:20.168Z,9.68
2022-12-18T10:35:55.712Z,9.60
2022-12-18T10:38:29.491Z,10.73
2022-12-18T10:41:29.453Z,9.93
2022-12-18T10:44:21.017Z,9.02
2022-12-18T10:46:53.408Z,9.57
2022-12-18T10:49:36.508Z,9.10
2022-12-18T10:52:27.575Z,9.65
2022-12-18T10:55:07.182Z,9.90
2022-12-18T10:57:43.086Z,9.55
2022-12-18T11:00:33.274Z,9.50
2022-12-18T11:03:04.262Z,9.32
2022-12-18T11:05:36.762Z,9.15
2022-12-18T11:08:06.896Z,9.65
2022-12-18T11:10:43.521Z,9.88
2022-12-18T11:13:26.826Z,9.65
2022-12-18T11:15:57.253Z,9.48
2022-12-18T11:18:38.854Z,9.57
2022-12-18T11:21:15.264Z,10.07
2022-12-18T11:23:55.327Z,9.10
2022-12-18T11:26:38.485Z,9.70
2022-12-18T11:29:19.692Z,9.57
2022-12-18T11:31:51.372Z,10.35
2022-12-18T11:34:34.343Z,9.98
2022-12-18T11:37:06.600Z,11.00
2022-12-18T11:39:50.122Z,10.43
2022-12-18T11:42:38.781Z,10.77
2022-12-18T11:45:30.468Z,11.18
2022-12-18T11:48:27.396Z,11.32
2022-12-18T11:51:03.887Z,12.52
2022-12-18T11:53:34.145Z,12.27
2022-12-18T11:56:31.505Z,13.63
2022-12-18T11:59:30.508Z,13.15
2022-12-18T12:02:39.550Z,13.48
2022-12-18T12:05:49.273Z,15.00
2022-12-18T12:08:50.424Z,16.10
2022-12-18T12:11:46.068Z,16.08
2022-12-18T12:14:46.363Z,16.42
2022-12-18T12:17:48.129Z,15.85
2022-12-18T12:20:36.107Z,16.10
2022-12-18T12:25:55.367Z,15.30
2022-12-18T12:28:58.523Z,15.77
2022-12-18T12:32:00.341Z,16.77
2022-12-18T12:34:37.847Z,15.23
2022-12-18T12:37:44.111Z,16.08
2022-12-18T12:40:50.272Z,15.15
2022-12-18T12:43:50.512Z,15.27
2022-12-18T12:46:24.555Z,15.75
2022-12-18T12:49:11.745Z,14.65
2022-12-18T12:51:47.065Z,14.98
2022-12-18T12:54:22.230Z,14.98
2022-12-18T12:57:04.712Z,15.52
2022-12-18T13:00:13.695Z,16.67
2022-12-18T13:03:18.809Z,15.80
2022-12-18T13:06:06.036Z,15.52
2022-12-18T13:08:57.069Z,15.57
2022-12-18T13:12:03.353Z,14.10
2022-12-18T13:14:42.927Z,15.23
2022-12-18T13:17:33.642Z,14.52
2022-12-18T13:20:17.070Z,14.95
2022-12-18T13:22:51.308Z,15.65
2022-12-18T13:25:40.958Z,15.48
2022-12-18T13:28:17.634Z,14.52
2022-12-18T13:30:59.347Z,15.15
2022-12-18T13:34:23.869Z,15.23
2022-12-18T13:36:37.624Z,14.88
2022-12-18T13:39:35.217Z,14.70
2022-12-18T13:43:04.340Z,14.27
2022-12-18T13:45:47.684Z,14.60
2022-12-18T13:48:23.656Z,15.13
2022-12-18T13:51:07.473Z,15.07
2022-12-18T13:53:42.682Z,14.57
2022-12-18T13:56:17.993Z,14.80
2022-12-18T13:58:48.021Z,15.68
2022-12-18T14:01:27.823Z,15.93
2022-12-18T14:04:23.055Z,15.02
2022-12-18T14:06:58.220Z,15.65
2022-12-18T14:09:32.866Z,18.17
2022-12-18T14:12:23.273Z,17.55
2022-12-18T14:14:55.528Z,19.25
2022-12-18T14:17:26.446Z,20.10
2022-12-18T14:19:56.596Z,22.25
2022-12-18T14:22:32.808Z,19.77
2022-12-18T14:25:31.148Z,24.88
2022-12-18T14:28:17.850Z,32.33
2022-12-18T14:30:49.213Z,33.80
2022-12-18T14:33:22.757Z,31.75
2022-12-18T14:36:03.247Z,30.70
2022-12-18T14:38:38.911Z,27.02
2022-12-18T14:41:14.523Z,27.73
2022-12-18T14:43:46.182Z,28.23
2022-12-18T14:46:39.350Z,30.00
2022-12-18T14:49:36.904Z,30.20
2022-12-18T14:52:26.588Z,30.20
2022-12-18T14:54:56.548Z,28.65
2022-12-18T14:57:29.489Z,29.38
2022-12-18T15:00:09.791Z,29.42
2022-12-18T15:02:40.359Z,29.67
2022-12-18T15:05:30.191Z,29.23
2022-12-18T15:08:17.067Z,29.30
2022-12-18T15:10:51.363Z,29.42
2022-12-18T15:13:28.541Z,29.42
2022-12-18T15:16:06.759Z,34.35
2022-12-18T15:18:46.481Z,33.50
2022-12-18T15:21:23.793Z,33.63
2022-12-18T15:23:55.381Z,30.65
2022-12-18T15:26:25.619Z,28.02
2022-12-18T15:29:00.061Z,29.30
2022-12-18T15:31:38.080Z,27.80
2022-12-18T15:34:23.255Z,28.55
2022-12-18T15:36:54.820Z,28.83
2022-12-18T15:39:24.837Z,27.33
2022-12-18T15:42:14.567Z,28.45
2022-12-18T15:44:46.516Z,27.08
2022-12-18T15:47:16.723Z,27.52
2022-12-18T15:49:46.957Z,29.38
2022-12-18T15:52:28.381Z,43.17
2022-12-18T15:55:18.049Z,30.38
2022-12-18T15:57:47.887Z,28.55
2022-12-18T16:00:18.006Z,28.40
2022-12-18T16:02:47.815Z,30.35
2022-12-18T16:05:19.672Z,32.38
2022-12-18T16:07:49.905Z,32.10
2022-12-18T16:10:20.555Z,30.95
2022-12-18T16:12:50.567Z,32.75
2022-12-18T16:15:24.575Z,32.75
2022-12-18T16:17:54.890Z,32.58
2022-12-18T16:20:25.344Z,31.98
2022-12-18T16:22:55.757Z,32.17
2022-12-18T16:25:28.487Z,36.65
2022-12-18T16:27:59.137Z,36.42
2022-12-18T16:30:38.061Z,33.50
2022-12-18T16:33:08.334Z,31.05
2022-12-18T16:35:39.768Z,30.63
2022-12-18T16:38:09.439Z,30.92
2022-12-18T16:41:01.084Z,31.67
2022-12-18T16:43:30.691Z,29.00
2022-12-18T16:46:02.223Z,25.73
2022-12-18T16:48:31.885Z,25.13
2022-12-18T16:51:06.407Z,21.83
2022-12-18T16:53:36.450Z,21.38
2022-12-18T16:56:06.409Z,20.88
2022-12-18T16:58:36.969Z,19.25
2022-12-18T17:01:11.586Z,21.00
2022-12-18T17:03:41.599Z,20.05
2022-12-18T17:06:13.302Z,20.38
2022-12-18T17:08:42.989Z,19.85
2022-12-18T17:11:14.092Z,23.63
2022-12-18T17:13:44.161Z,25.10
2022-12-18T17:16:14.264Z,21.17
2022-12-18T17:18:44.221Z,21.13
2022-12-18T17:21:16.199Z,18.63
2022-12-18T17:23:46.279Z,20.60
2022-12-18T17:26:16.664Z,21.45
2022-12-18T17:28:46.681Z,18.58
2022-12-18T17:31:22.079Z,18.73
2022-12-18T17:33:52.891Z,19.13
2022-12-18T17:36:23.600Z,19.83
2022-12-18T17:38:55.568Z,19.75
2022-12-18T17:41:25.933Z,19.52
2022-12-18T17:43:59.196Z,19.23
2022-12-18T17:46:30.922Z,19.88
2022-12-18T17:49:02.206Z,20.63
2022-12-18T17:51:32.752Z,20.88
2022-12-18T17:54:02.793Z,24.48
2022-12-18T17:56:32.854Z,26.35
2022-12-18T17:59:06.014Z,25.35
2022-12-18T18:01:45.201Z,22.15
2022-12-18T18:04:28.218Z,23.65
2022-12-18T18:06:57.779Z,25.55
2022-12-18T18:09:27.507Z,25.63
2022-12-18T18:12:17.855Z,25.65
2022-12-18T18:14:48.859Z,24.85
2022-12-18T18:17:19.454Z,25.20
2022-12-18T18:19:49.597Z,24.73
2022-12-18T18:22:20.660Z,23.80
2022-12-18T18:24:53.055Z,24.33
2022-12-18T18:27:22.940Z,21.80
2022-12-18T18:29:53.021Z,21.90
2022-12-18T18:32:23.007Z,20.35
2022-12-18T18:34:52.891Z,21.73
2022-12-18T18:37:23.121Z,21.98
2022-12-18T18:39:53.201Z,21.88
2022-12-18T18:42:23.063Z,21.65
2022-12-18T18:44:52.956Z,22.42
2022-12-18T18:47:23.722Z,21.92
2022-12-18T18:49:53.612Z,20.35
2022-12-18T18:52:23.460Z,20.15
2022-12-18T18:55:12.243Z,20.55
2022-12-18T18:57:44.100Z,19.42
2022-12-18T19:00:15.613Z,18.50
2022-12-18T19:02:45.272Z,18.95
2022-12-18T19:05:14.852Z,18.17
2022-12-18T19:07:44.701Z,18.60
2022-12-18T19:10:14.355Z,16.95
2022-12-18T19:13:04.628Z,18.25
2022-12-18T19:15:36.394Z,17.00
2022-12-18T19:18:06.800Z,18.20
2022-12-18T19:20:36.934Z,18.40
2022-12-18T19:23:06.793Z,18.23
2022-12-18T19:25:42.128Z,17.90
2022-12-18T19:28:22.036Z,18.90
2022-12-18T19:30:58.895Z,17.35
2022-12-18T19:33:46.125Z,17.42
2022-12-18T19:36:23.749Z,17.15
2022-12-18T19:38:55.924Z,16.75
2022-12-18T19:41:29.051Z,16.73
2022-12-18T19:43:59.128Z,16.60
2022-12-18T19:46:29.092Z,16.58
2022-12-18T19:49:00.845Z,16.17
2022-12-18T19:51:32.564Z,16.63
2022-12-18T19:54:03.729Z,15.45
2022-12-18T19:56:36.081Z,16.17
2022-12-18T19:59:06.985Z,16.02
2022-12-18T20:01:36.782Z,17.50
2022-12-18T20:04:06.769Z,16.92
2022-12-18T20:06:50.032Z,16.98
2022-12-18T20:09:20.377Z,16.70
2022-12-18T20:11:51.659Z,16.60
2022-12-18T20:14:23.459Z,16.83
2022-12-18T20:16:54.461Z,16.08
2022-12-18T20:19:25.018Z,18.20
2022-12-18T20:21:54.975Z,17.20
2022-12-18T20:24:24.919Z,17.55
2022-12-18T20:26:54.936Z,18.25
2022-12-18T20:29:25.073Z,17.45
2022-12-18T20:31:55.136Z,18.27
2022-12-18T20:34:25.710Z,17.23
2022-12-18T20:36:56.075Z,17.27
2022-12-18T20:39:28.065Z,19.25
2022-12-18T20:41:58.390Z,18.88
2022-12-18T20:44:28.509Z,17.90
2022-12-18T20:47:08.438Z,19.52
2022-12-18T20:49:39.563Z,19.83
2022-12-18T20:52:14.642Z,20.35
2022-12-18T20:54:44.632Z,20.40
2022-12-18T20:57:14.564Z,19.80
2022-12-18T20:59:48.160Z,19.98
2022-12-18T21:02:19.198Z,18.85
2022-12-18T21:04:48.966Z,19.60
2022-12-18T21:07:19.148Z,18.75
2022-12-18T21:09:48.888Z,18.35
2022-12-18T21:12:43.994Z,17.55
2022-12-18T21:15:29.299Z,19.08
2022-12-18T21:17:59.235Z,18.92
2022-12-18T21:20:29.202Z,19.58
2022-12-18T21:23:03.946Z,19.83
2022-12-18T21:25:46.914Z,18.63
2022-12-18T21:28:19.359Z,19.05
2022-12-18T21:30:49.353Z,18.60
2022-12-18T21:33:19.235Z,17.92
2022-12-18T21:35:49.320Z,18.23
2022-12-18T21:38:19.221Z,19.05
2022-12-18T21:40:49.289Z,18.73
2022-12-18T21:43:39.073Z,17.48
2022-12-18T21:46:09.025Z,19.10
2022-12-18T21:48:40.755Z,18.88
2022-12-18T21:51:11.002Z,18.08
2022-12-18T21:53:41.033Z,17.88
2022-12-18T21:56:11.005Z,18.75
2022-12-18T21:58:41.136Z,19.00
2022-12-18T22:01:26.761Z,19.58
2022-12-18T22:04:07.453Z,18.92
2022-12-18T22:06:37.014Z,19.42
2022-12-18T22:09:07.437Z,20.27
2022-12-18T22:11:37.121Z,19.45
2022-12-18T22:14:06.980Z,18.25
2022-12-18T22:16:37.714Z,18.40
2022-12-18T22:19:08.314Z,17.10
2022-12-18T22:21:41.434Z,18.05
2022-12-18T22:24:31.031Z,17.27
2022-12-18T22:27:06.439Z,18.60
2022-12-18T22:29:55.895Z,18.67
2022-12-18T22:32:31.015Z,20.42
2022-12-18T22:35:08.331Z,19.05
2022-12-18T22:37:40.520Z,17.73
2022-12-18T22:40:13.046Z,17.17
2022-12-18T22:42:43.734Z,15.80
2022-12-18T22:45:14.233Z,17.70
2022-12-18T22:47:44.177Z,17.15
2022-12-18T22:50:15.976Z,18.10
2022-12-18T22:52:45.961Z,17.75
2022-12-18T22:55:15.857Z,16.77
2022-12-18T22:57:48.638Z,17.73
2022-12-18T23:00:24.368Z,16.25
2022-12-18T23:03:00.390Z,17.55
2022-12-18T23:05:32.527Z,17.17
2022-12-18T23:08:02.060Z,17.45
2022-12-18T23:10:31.606Z,16.90
2022-12-18T23:13:01.231Z,16.88
2022-12-18T23:15:30.789Z,20.00
2022-12-18T23:18:01.794Z,17.80
2022-12-18T23:20:31.974Z,18.42
2022-12-18T23:23:01.499Z,17.48
2022-12-18T23:25:31.021Z,17.40
2022-12-18T23:28:00.633Z,16.73
2022-12-18T23:30:30.230Z,16.08
2022-12-18T23:32:59.844Z,16.55
2022-12-18T23:35:29.540Z,15.52
2022-12-18T23:37:59.949Z,15.45
2022-12-18T23:40:31.481Z,17.27
2022-12-18T23:43:02.094Z,15.60
2022-12-18T23:45:31.728Z,16.83
2022-12-18T23:48:01.401Z,17.10
2022-12-18T23:50:30.952Z,16.60
2022-12-18T23:53:05.144Z,14.95
2022-12-18T23:55:40.432Z,19.05
2022-12-18T23:58:21.312Z,17.05
